Time;durP1;ratioP1;P1;durP2;ratioP2;P2;SDS_P1;SDS_P2;PMS_P1;PMS_P2;Temp;Humidity;BMP_temperature;BMP_pressure;BME280_temperature;BME280_humidity;BME280_pressure;Samples;Min_cycle;Max_cycle;Signal;HPM_P1;HPM_P2
2021/10/21 00:02:07;;;;;;;12.02;9.80;;;;;;;;;;5149068;27;20015;-71
2021/10/21 00:04:34;;;;;;;14.43;9.70;;;;;;;;;;5149224;27;20183;-71
2021/10/21 00:07:00;;;;;;;14.77;9.70;;;;;;;;;;5152362;27;20029;-71
2021/10/21 00:09:26;;;;;;;10.52;9.38;;;;;;;;;;5151721;27;20015;-71
2021/10/21 00:11:52;;;;;;;11.20;9.07;;;;;;;;;;5152953;27;20078;-71
2021/10/21 00:14:18;;;;;;;10.95;9.70;;;;;;;;;;5152976;27;20018;-71
2021/10/21 00:16:45;;;;;;;12.82;9.30;;;;;;;;;;5152730;27;20093;-71
2021/10/21 00:19:11;;;;;;;10.35;9.25;;;;;;;;;;5152400;27;20037;-71
2021/10/21 00:21:37;;;;;;;12.25;9.98;;;;;;;;;;5151279;27;20036;-71
2021/10/21 00:24:03;;;;;;;12.50;9.52;;;;;;;;;;5152529;27;20031;-71
2021/10/21 00:26:29;;;;;;;11.52;9.13;;;;;;;;;;5152721;27;20023;-71
2021/10/21 00:28:55;;;;;;;11.20;9.02;;;;;;;;;;5152797;27;20027;-71
2021/10/21 00:31:22;;;;;;;13.40;9.13;;;;;;;;;;5151116;27;20029;-71
2021/10/21 00:33:48;;;;;;;10.75;9.35;;;;;;;;;;5150793;27;20091;-71
2021/10/21 00:36:14;;;;;;;11.02;9.32;;;;;;;;;;5152458;27;20015;-71
2021/10/21 00:38:40;;;;;;;11.13;8.77;;;;;;;;;;5152284;27;20058;-72
2021/10/21 00:41:06;;;;;;;10.88;9.35;;;;;;;;;;5152275;27;20034;-71
2021/10/21 00:43:39;;;;;;;11.07;8.48;;;;;;;;;;5150913;27;20022;-72
2021/10/21 00:46:06;;;;;;;10.95;8.95;;;;;;;;;;5152148;27;20023;-71
2021/10/21 00:48:33;;;;;;;9.95;8.85;;;;;;;;;;5152304;27;20023;-71
2021/10/21 00:50:59;;;;;;;10.60;8.82;;;;;;;;;;5152090;27;20023;-71
2021/10/21 00:53:26;;;;;;;9.32;8.18;;;;;;;;;;5151844;27;20472;-72
2021/10/21 00:55:52;;;;;;;8.18;7.38;;;;;;;;;;5152203;27;20086;-71
2021/10/21 00:58:18;;;;;;;10.57;8.05;;;;;;;;;;5150435;27;20039;-72
2021/10/21 01:00:44;;;;;;;9.98;7.38;;;;;;;;;;5152112;27;20643;-71
2021/10/21 01:03:11;;;;;;;8.60;7.65;;;;;;;;;;5148689;27;20591;-71
2021/10/21 01:05:37;;;;;;;8.90;8.00;;;;;;;;;;5147171;27;20048;-72
2021/10/21 01:08:03;;;;;;;10.25;8.50;;;;;;;;;;5151198;27;20587;-71
2021/10/21 01:10:29;;;;;;;8.65;7.75;;;;;;;;;;5151787;27;20066;-71
2021/10/21 01:12:56;;;;;;;9.48;7.38;;;;;;;;;;5150999;27;20019;-71
2021/10/21 01:15:22;;;;;;;9.10;6.97;;;;;;;;;;5133748;27;20040;-71
2021/10/21 01:17:49;;;;;;;8.50;6.70;;;;;;;;;;5151871;27;20014;-72
2021/10/21 01:20:15;;;;;;;7.07;6.38;;;;;;;;;;5150115;27;20049;-72
2021/10/21 01:22:42;;;;;;;7.78;7.07;;;;;;;;;;5151717;27;20018;-71
2021/10/21 01:25:09;;;;;;;9.43;6.85;;;;;;;;;;5151564;27;20054;-71
2021/10/21 01:27:35;;;;;;;8.25;7.45;;;;;;;;;;5150382;27;20015;-71
2021/10/21 01:30:01;;;;;;;7.70;6.72;;;;;;;;;;5150027;27;20027;-71
2021/10/21 01:32:34;;;;;;;10.82;6.88;;;;;;;;;;5151364;27;20030;-71
2021/10/21 01:35:00;;;;;;;9.30;6.82;;;;;;;;;;5151676;27;20479;-71
2021/10/21 01:37:26;;;;;;;7.03;6.32;;;;;;;;;;5151494;27;20480;-71
2021/10/21 01:39:53;;;;;;;7.80;5.90;;;;;;;;;;5150136;27;20428;-71
2021/10/21 01:42:19;;;;;;;7.53;6.22;;;;;;;;;;5151449;27;20045;-71
2021/10/21 01:44:45;;;;;;;10.88;6.70;;;;;;;;;;5151596;27;20011;-71
2021/10/21 01:47:11;;;;;;;8.02;6.47;;;;;;;;;;5149623;27;20046;-71
2021/10/21 01:49:37;;;;;;;8.60;6.82;;;;;;;;;;5151264;27;20033;-73
2021/10/21 01:52:04;;;;;;;9.70;7.00;;;;;;;;;;5147541;27;20023;-72
2021/10/21 01:54:30;;;;;;;7.40;6.40;;;;;;;;;;5145525;27;20023;-71
2021/10/21 01:56:56;;;;;;;7.00;6.20;;;;;;;;;;5146456;27;20314;-72
2021/10/21 01:59:22;;;;;;;6.75;6.05;;;;;;;;;;5144571;27;20050;-71
2021/10/21 02:01:48;;;;;;;6.80;6.10;;;;;;;;;;5134284;27;20725;-72
2021/10/21 02:04:14;;;;;;;9.82;6.45;;;;;;;;;;5125338;28;20530;-72
2021/10/21 02:06:41;;;;;;;7.25;5.80;;;;;;;;;;5124155;28;20058;-72
2021/10/21 02:09:07;;;;;;;6.50;5.88;;;;;;;;;;5125449;28;20531;-71
2021/10/21 02:11:33;;;;;;;7.65;6.18;;;;;;;;;;5122272;28;20384;-71
2021/10/21 02:13:59;;;;;;;6.93;6.22;;;;;;;;;;5127455;27;20451;-71
2021/10/21 02:16:26;;;;;;;10.50;5.90;;;;;;;;;;5147590;27;20459;-71
2021/10/21 02:18:53;;;;;;;8.57;6.05;;;;;;;;;;5150125;27;20428;-71
2021/10/21 02:21:20;;;;;;;7.90;5.97;;;;;;;;;;5149488;27;20155;-71
2021/10/21 02:23:46;;;;;;;10.20;6.70;;;;;;;;;;5149202;27;20023;-71
2021/10/21 02:26:12;;;;;;;10.50;6.30;;;;;;;;;;5150087;27;20447;-71
2021/10/21 02:28:39;;;;;;;7.75;6.95;;;;;;;;;;5148469;27;20371;-71
2021/10/21 02:31:05;;;;;;;8.18;6.20;;;;;;;;;;5146927;27;20030;-72
2021/10/21 02:33:31;;;;;;;7.25;6.28;;;;;;;;;;5146132;27;20087;-71
2021/10/21 02:35:57;;;;;;;7.82;7.05;;;;;;;;;;5145670;27;20471;-71
2021/10/21 02:38:23;;;;;;;8.27;6.20;;;;;;;;;;5149834;27;20390;-71
2021/10/21 02:40:49;;;;;;;8.48;6.70;;;;;;;;;;5147792;27;20031;-71
2021/10/21 02:43:15;;;;;;;7.65;6.13;;;;;;;;;;5149432;27;20355;-71
2021/10/21 02:45:42;;;;;;;7.57;6.38;;;;;;;;;;5149837;27;20019;-71
2021/10/21 02:48:08;;;;;;;7.57;6.82;;;;;;;;;;5149693;27;20067;-71
2021/10/21 02:50:34;;;;;;;7.97;7.18;;;;;;;;;;5148379;27;20034;-71
2021/10/21 02:53:00;;;;;;;8.32;7.45;;;;;;;;;;5136631;27;20023;-72
2021/10/21 02:55:26;;;;;;;10.68;6.55;;;;;;;;;;5149184;27;20030;-71
2021/10/21 02:57:53;;;;;;;10.27;7.97;;;;;;;;;;5149672;27;20027;-71
2021/10/21 03:00:19;;;;;;;10.30;7.75;;;;;;;;;;5149404;27;20121;-71
2021/10/21 03:02:45;;;;;;;11.38;7.70;;;;;;;;;;5144363;27;20053;-71
2021/10/21 03:05:11;;;;;;;9.95;8.32;;;;;;;;;;5146331;27;20037;-72
2021/10/21 03:07:37;;;;;;;9.60;8.48;;;;;;;;;;5146946;27;20026;-72
2021/10/21 03:10:04;;;;;;;9.38;8.30;;;;;;;;;;5147483;27;20031;-72
2021/10/21 03:12:30;;;;;;;12.68;8.35;;;;;;;;;;5142960;27;20027;-71
2021/10/21 03:14:56;;;;;;;8.88;8.07;;;;;;;;;;5143747;27;20035;-71
2021/10/21 03:17:23;;;;;;;11.35;8.23;;;;;;;;;;5139315;27;20070;-71
2021/10/21 03:19:49;;;;;;;10.48;7.78;;;;;;;;;;5140074;27;20039;-71
2021/10/21 03:22:15;;;;;;;8.88;7.35;;;;;;;;;;5134613;27;20064;-71
2021/10/21 03:24:42;;;;;;;7.70;6.90;;;;;;;;;;5146489;27;20018;-71
2021/10/21 03:27:08;;;;;;;8.35;6.72;;;;;;;;;;5143836;27;20079;-71
2021/10/21 03:29:35;;;;;;;10.55;7.55;;;;;;;;;;5142547;27;20022;-71
2021/10/21 03:32:01;;;;;;;9.52;7.10;;;;;;;;;;5142878;27;20052;-71
2021/10/21 03:34:27;;;;;;;8.00;6.72;;;;;;;;;;5143153;27;20027;-71
2021/10/21 03:36:53;;;;;;;8.50;7.05;;;;;;;;;;5144050;27;20542;-71
2021/10/21 03:39:19;;;;;;;6.85;6.20;;;;;;;;;;5141027;27;20376;-71
2021/10/21 03:41:46;;;;;;;8.18;6.15;;;;;;;;;;5142353;27;20027;-72
2021/10/21 03:44:12;;;;;;;6.88;5.95;;;;;;;;;;5143364;27;20046;-71
2021/10/21 03:46:39;;;;;;;6.03;5.38;;;;;;;;;;5142856;27;20056;-71
2021/10/21 03:49:06;;;;;;;6.63;5.78;;;;;;;;;;5141851;27;20061;-71
2021/10/21 03:51:32;;;;;;;7.45;5.72;;;;;;;;;;5143118;27;20095;-71
2021/10/21 03:53:58;;;;;;;7.07;5.55;;;;;;;;;;5142234;27;20022;-72
2021/10/21 03:56:24;;;;;;;6.22;5.57;;;;;;;;;;5142108;27;20469;-72
2021/10/21 03:58:50;;;;;;;8.90;5.00;;;;;;;;;;5142565;27;20055;-72
2021/10/21 04:01:16;;;;;;;6.30;5.70;;;;;;;;;;5143120;27;20030;-71
2021/10/21 04:03:43;;;;;;;5.93;5.43;;;;;;;;;;5140909;27;20070;-72
2021/10/21 04:06:09;;;;;;;7.25;5.20;;;;;;;;;;5142226;27;20033;-71
2021/10/21 04:08:35;;;;;;;8.05;5.50;;;;;;;;;;5141432;27;20036;-71
2021/10/21 04:11:01;;;;;;;5.38;4.88;;;;;;;;;;5141781;27;20475;-71
2021/10/21 04:13:27;;;;;;;5.35;4.50;;;;;;;;;;5140965;27;20427;-71
2021/10/21 04:15:53;;;;;;;6.55;4.35;;;;;;;;;;5141750;27;20030;-71
2021/10/21 04:18:19;;;;;;;6.53;4.72;;;;;;;;;;5140287;27;20076;-71
2021/10/21 04:20:46;;;;;;;4.72;4.30;;;;;;;;;;5142530;27;20026;-71
2021/10/21 04:23:12;;;;;;;8.27;4.68;;;;;;;;;;5140253;27;20023;-71
2021/10/21 04:25:38;;;;;;;5.85;5.05;;;;;;;;;;5142540;27;20379;-71
2021/10/21 04:28:04;;;;;;;14.63;5.97;;;;;;;;;;5133089;27;20031;-71
2021/10/21 04:30:31;;;;;;;18.60;6.57;;;;;;;;;;5121365;27;20134;-72
2021/10/21 04:32:57;;;;;;;9.63;7.07;;;;;;;;;;5121689;27;20404;-71
2021/10/21 04:35:23;;;;;;;5.35;4.43;;;;;;;;;;5125705;27;20027;-71
2021/10/21 04:37:49;;;;;;;5.38;4.60;;;;;;;;;;5140949;27;20037;-71
2021/10/21 04:40:15;;;;;;;14.88;5.30;;;;;;;;;;5140460;27;20138;-71
2021/10/21 04:42:41;;;;;;;8.32;4.63;;;;;;;;;;5142061;27;20392;-71
2021/10/21 04:45:08;;;;;;;25.33;9.05;;;;;;;;;;5142342;27;20664;-71
2021/10/21 04:47:34;;;;;;;7.13;4.90;;;;;;;;;;5140512;27;20071;-71
2021/10/21 04:50:00;;;;;;;5.90;4.70;;;;;;;;;;5141686;27;20058;-72
2021/10/21 04:52:27;;;;;;;6.05;4.13;;;;;;;;;;5140473;27;20099;-71
2021/10/21 04:54:53;;;;;;;6.35;4.75;;;;;;;;;;5140739;27;20034;-71
2021/10/21 04:57:20;;;;;;;17.38;6.22;;;;;;;;;;5141900;27;20467;-71
2021/10/21 04:59:46;;;;;;;7.07;4.65;;;;;;;;;;5141282;27;20455;-71
2021/10/21 05:02:12;;;;;;;11.70;5.30;;;;;;;;;;5141762;27;20054;-71
2021/10/21 05:04:38;;;;;;;5.38;4.75;;;;;;;;;;5141319;27;20030;-71
2021/10/21 05:07:04;;;;;;;7.55;4.78;;;;;;;;;;5138132;27;20087;-71
2021/10/21 05:09:31;;;;;;;5.80;4.40;;;;;;;;;;5133254;27;20043;-72
2021/10/21 05:11:57;;;;;;;8.00;4.32;;;;;;;;;;5141273;27;20023;-72
2021/10/21 05:14:23;;;;;;;5.38;4.38;;;;;;;;;;5140935;27;20022;-72
2021/10/21 05:16:49;;;;;;;5.40;4.30;;;;;;;;;;5138094;27;20019;-72
2021/10/21 05:19:16;;;;;;;5.28;4.43;;;;;;;;;;5139633;27;20039;-71
2021/10/21 05:21:42;;;;;;;5.35;4.18;;;;;;;;;;5141042;27;20114;-72
2021/10/21 05:24:08;;;;;;;4.57;4.10;;;;;;;;;;5141513;27;20034;-71
2021/10/21 05:26:34;;;;;;;4.50;4.10;;;;;;;;;;5139819;27;20054;-71
2021/10/21 05:29:00;;;;;;;5.35;4.72;;;;;;;;;;5140569;27;20027;-72
2021/10/21 05:31:26;;;;;;;7.25;4.63;;;;;;;;;;5141091;27;20015;-72
2021/10/21 05:33:52;;;;;;;5.13;4.63;;;;;;;;;;5141296;27;20026;-71
2021/10/21 05:36:20;;;;;;;5.60;4.97;;;;;;;;;;5140478;27;20046;-71
2021/10/21 05:38:46;;;;;;;6.68;4.70;;;;;;;;;;5139273;27;20122;-72
2021/10/21 05:41:13;;;;;;;5.85;4.75;;;;;;;;;;5139188;27;20034;-72
2021/10/21 05:43:39;;;;;;;5.10;4.60;;;;;;;;;;5141144;27;20571;-71
2021/10/21 05:46:05;;;;;;;5.43;4.47;;;;;;;;;;5140811;27;20033;-72
2021/10/21 05:48:31;;;;;;;5.97;4.63;;;;;;;;;;5140736;27;20034;-71
2021/10/21 05:50:57;;;;;;;7.43;4.57;;;;;;;;;;5147622;27;20036;-71
2021/10/21 05:53:24;;;;;;;6.40;5.03;;;;;;;;;;5146070;27;20018;-71
2021/10/21 05:55:50;;;;;;;5.95;5.35;;;;;;;;;;5148093;27;20023;-71
2021/10/21 05:58:16;;;;;;;9.57;5.28;;;;;;;;;;5147535;27;20065;-72
2021/10/21 06:00:42;;;;;;;7.38;4.85;;;;;;;;;;5146001;27;20065;-71
2021/10/21 06:03:10;;;;;;;4.63;4.22;;;;;;;;;;5147160;27;20113;-72
2021/10/21 06:05:36;;;;;;;5.00;4.60;;;;;;;;;;5147269;27;20022;-72
2021/10/21 06:08:02;;;;;;;8.93;4.68;;;;;;;;;;5146854;27;20035;-72
2021/10/21 06:10:28;;;;;;;5.97;4.93;;;;;;;;;;5147248;27;20022;-71
2021/10/21 06:12:55;;;;;;;7.68;4.97;;;;;;;;;;5145667;27;20026;-71
2021/10/21 06:15:22;;;;;;;5.93;4.53;;;;;;;;;;5147191;27;20041;-72
2021/10/21 06:17:49;;;;;;;5.53;4.32;;;;;;;;;;5147054;27;20218;-72
2021/10/21 06:20:15;;;;;;;5.80;4.55;;;;;;;;;;5147400;27;20102;-72
2021/10/21 06:22:42;;;;;;;5.20;4.70;;;;;;;;;;5146016;27;20069;-71
2021/10/21 06:25:10;;;;;;;4.45;3.90;;;;;;;;;;5146853;27;20084;-71
2021/10/21 06:27:38;;;;;;;5.47;4.47;;;;;;;;;;5147504;27;20389;-71
2021/10/21 06:30:04;;;;;;;5.20;3.97;;;;;;;;;;5147141;27;20029;-71
2021/10/21 06:32:31;;;;;;;7.25;5.15;;;;;;;;;;5145193;27;20137;-73
2021/10/21 06:34:57;;;;;;;7.28;4.93;;;;;;;;;;5146714;27;20022;-72
2021/10/21 06:37:23;;;;;;;10.80;5.70;;;;;;;;;;5146177;27;20042;-71
2021/10/21 06:39:55;;;;;;;5.43;4.85;;;;;;;;;;5145953;27;20475;-71
2021/10/21 06:42:22;;;;;;;5.38;4.30;;;;;;;;;;5126230;27;20072;-71
2021/10/21 06:44:48;;;;;;;5.22;4.70;;;;;;;;;;5138690;27;20039;-71
2021/10/21 06:47:14;;;;;;;5.10;4.60;;;;;;;;;;5146302;27;20018;-71
2021/10/21 06:49:40;;;;;;;6.32;4.80;;;;;;;;;;5146233;27;20034;-71
2021/10/21 06:52:06;;;;;;;5.72;4.57;;;;;;;;;;5130586;27;20045;-72
2021/10/21 06:54:33;;;;;;;6.10;4.45;;;;;;;;;;5143989;27;20431;-72
2021/10/21 06:56:59;;;;;;;6.43;3.80;;;;;;;;;;5144340;27;20026;-72
2021/10/21 06:59:26;;;;;;;5.00;3.92;;;;;;;;;;5145440;27;20673;-73
2021/10/21 07:01:52;;;;;;;5.20;3.92;;;;;;;;;;5136953;27;20023;-71
2021/10/21 07:04:21;;;;;;;4.82;4.32;;;;;;;;;;5144818;27;20034;-71
2021/10/21 07:06:47;;;;;;;4.20;3.80;;;;;;;;;;5137524;27;20030;-71
2021/10/21 07:09:13;;;;;;;4.40;4.00;;;;;;;;;;5143823;27;20019;-71
2021/10/21 07:11:39;;;;;;;3.97;3.58;;;;;;;;;;5145137;27;20166;-73
2021/10/21 07:14:06;;;;;;;4.80;4.15;;;;;;;;;;5146187;27;20022;-71
2021/10/21 07:16:32;;;;;;;4.88;4.30;;;;;;;;;;5143779;27;20026;-71
2021/10/21 07:18:58;;;;;;;7.28;4.00;;;;;;;;;;5137307;27;20067;-71
2021/10/21 07:21:24;;;;;;;5.03;4.50;;;;;;;;;;5144064;27;20031;-71
2021/10/21 07:23:51;;;;;;;4.00;3.67;;;;;;;;;;5143663;27;20110;-71
2021/10/21 07:26:17;;;;;;;6.03;3.90;;;;;;;;;;5124245;27;20023;-71
2021/10/21 07:28:43;;;;;;;4.35;3.95;;;;;;;;;;5124611;27;20056;-71
2021/10/21 07:31:14;;;;;;;4.65;3.97;;;;;;;;;;5124921;27;20023;-71
2021/10/21 07:33:40;;;;;;;4.17;3.77;;;;;;;;;;5124774;27;20637;-71
2021/10/21 07:36:06;;;;;;;4.65;4.13;;;;;;;;;;5123019;27;20440;-71
2021/10/21 07:38:32;;;;;;;5.28;4.15;;;;;;;;;;5124137;27;20098;-72
2021/10/21 07:40:58;;;;;;;5.20;4.65;;;;;;;;;;5124377;27;20500;-71
2021/10/21 07:43:25;;;;;;;6.00;3.85;;;;;;;;;;5124375;27;20406;-72
2021/10/21 07:45:51;;;;;;;6.10;4.30;;;;;;;;;;5122962;27;20015;-72
2021/10/21 07:48:17;;;;;;;6.30;4.47;;;;;;;;;;5123910;27;20355;-72
2021/10/21 07:50:45;;;;;;;6.50;4.45;;;;;;;;;;5142173;27;20479;-72
2021/10/21 07:53:11;;;;;;;7.00;4.30;;;;;;;;;;5143624;27;20097;-72
2021/10/21 07:55:38;;;;;;;8.07;4.78;;;;;;;;;;5144640;27;20023;-73
2021/10/21 07:58:04;;;;;;;6.57;4.50;;;;;;;;;;5143235;27;20030;-71
2021/10/21 08:00:32;;;;;;;5.30;4.80;;;;;;;;;;5144195;27;20054;-71
2021/10/21 08:02:58;;;;;;;7.47;4.80;;;;;;;;;;5144604;27;20026;-71
2021/10/21 08:05:24;;;;;;;6.07;4.75;;;;;;;;;;5144713;27;20026;-71
2021/10/21 08:07:50;;;;;;;5.45;4.25;;;;;;;;;;5144758;27;20023;-71
2021/10/21 08:10:18;;;;;;;6.70;4.97;;;;;;;;;;5143398;27;20606;-71
2021/10/21 08:12:48;;;;;;;5.90;5.30;;;;;;;;;;5143645;27;20472;-70
2021/10/21 08:15:15;;;;;;;5.28;4.78;;;;;;;;;;5144421;27;20018;-71
2021/10/21 08:17:43;;;;;;;5.20;4.70;;;;;;;;;;5143044;27;20071;-71
2021/10/21 08:20:11;;;;;;;5.75;4.70;;;;;;;;;;5144662;27;20038;-71
2021/10/21 08:22:37;;;;;;;7.38;5.53;;;;;;;;;;5143470;27;20483;-73
2021/10/21 08:25:04;;;;;;;6.72;5.70;;;;;;;;;;5136936;27;20047;-72
2021/10/21 08:27:30;;;;;;;8.75;5.57;;;;;;;;;;5137697;27;20035;-73
2021/10/21 08:29:56;;;;;;;6.90;5.38;;;;;;;;;;5135568;27;20030;-71
2021/10/21 08:32:22;;;;;;;5.80;5.00;;;;;;;;;;5143647;27;20335;-71
2021/10/21 08:34:49;;;;;;;7.35;5.30;;;;;;;;;;5142505;27;20031;-72
2021/10/21 08:37:15;;;;;;;6.50;5.70;;;;;;;;;;5143291;27;20046;-71
2021/10/21 08:39:42;;;;;;;6.90;5.90;;;;;;;;;;5142833;27;20474;-73
2021/10/21 08:42:10;;;;;;;8.10;6.30;;;;;;;;;;5141355;27;20553;-73
2021/10/21 08:44:38;;;;;;;7.80;6.22;;;;;;;;;;5141649;27;20034;-73
2021/10/21 08:47:05;;;;;;;5.95;5.35;;;;;;;;;;5142217;27;20023;-73
2021/10/21 08:49:31;;;;;;;6.45;5.80;;;;;;;;;;5132595;27;20035;-73
2021/10/21 08:51:58;;;;;;;6.43;5.82;;;;;;;;;;5139135;27;20099;-74
2021/10/21 08:54:24;;;;;;;6.72;5.80;;;;;;;;;;5138084;27;20030;-74
2021/10/21 08:56:51;;;;;;;7.65;6.00;;;;;;;;;;5142035;27;20097;-74
2021/10/21 08:59:17;;;;;;;13.40;7.35;;;;;;;;;;5143570;27;20482;-74
2021/10/21 09:01:47;;;;;;;8.93;6.05;;;;;;;;;;5143000;27;20580;-74
2021/10/21 09:07:56;;;;;;;7.32;6.60;;;;;;;;;;5138671;27;20031;-73
2021/10/21 09:09:41;;;;;;;6.55;5.88;;;;;;;;;;5136083;27;20155;-73
2021/10/21 09:12:14;;;;;;;7.85;6.40;;;;;;;;;;5141725;27;20034;-73
2021/10/21 09:14:42;;;;;;;6.10;5.50;;;;;;;;;;5143075;27;20014;-74
2021/10/21 09:17:09;;;;;;;12.45;6.65;;;;;;;;;;5142230;27;20033;-73
2021/10/21 09:19:36;;;;;;;7.10;6.10;;;;;;;;;;5141359;27;20531;-73
2021/10/21 09:22:03;;;;;;;7.15;6.05;;;;;;;;;;5141019;27;20130;-73
2021/10/21 09:24:29;;;;;;;7.20;6.22;;;;;;;;;;5142863;27;20038;-73
2021/10/21 09:27:14;;;;;;;9.02;6.95;;;;;;;;;;5142350;27;20079;-73
2021/10/21 09:29:41;;;;;;;7.38;6.45;;;;;;;;;;5140608;27;20038;-73
2021/10/21 09:32:09;;;;;;;8.63;6.28;;;;;;;;;;5140987;27;20026;-73
2021/10/21 09:34:47;;;;;;;8.20;5.80;;;;;;;;;;5134573;27;20179;-73
2021/10/21 09:37:18;;;;;;;8.23;6.68;;;;;;;;;;5127258;27;20018;-73
2021/10/21 09:39:56;;;;;;;7.32;6.13;;;;;;;;;;5142820;27;20455;-73
2021/10/21 09:42:27;;;;;;;11.43;7.20;;;;;;;;;;5140244;27;20037;-73
2021/10/21 09:45:10;;;;;;;9.45;8.25;;;;;;;;;;5140625;27;20023;-73
2021/10/21 09:47:38;;;;;;;8.27;6.35;;;;;;;;;;5142512;27;20030;-73
2021/10/21 09:50:24;;;;;;;7.80;5.95;;;;;;;;;;5142024;27;20032;-74
2021/10/21 09:53:18;;;;;;;14.85;9.98;;;;;;;;;;5140959;27;20015;-73
2021/10/21 09:55:46;;;;;;;10.05;8.95;;;;;;;;;;5142496;27;20019;-74
2021/10/21 09:58:13;;;;;;;5.78;5.15;;;;;;;;;;5142783;27;20015;-73
2021/10/21 10:00:41;;;;;;;6.43;5.45;;;;;;;;;;5142261;27;20483;-74
2021/10/21 10:03:17;;;;;;;17.02;12.50;;;;;;;;;;5141395;27;20067;-73
2021/10/21 10:05:44;;;;;;;6.90;5.40;;;;;;;;;;5143380;27;20019;-73
2021/10/21 10:08:10;;;;;;;7.60;5.30;;;;;;;;;;5142806;27;20311;-73
2021/10/21 10:10:41;;;;;;;7.47;5.88;;;;;;;;;;5143345;27;20026;-73
2021/10/21 10:13:08;;;;;;;5.80;5.20;;;;;;;;;;5143046;27;20462;-73
2021/10/21 10:15:35;;;;;;;7.13;6.25;;;;;;;;;;5142232;27;20083;-74
2021/10/21 10:18:03;;;;;;;7.68;6.88;;;;;;;;;;5141401;27;20466;-73
2021/10/21 10:20:29;;;;;;;8.32;6.25;;;;;;;;;;5142703;27;20430;-74
2021/10/21 10:22:56;;;;;;;6.40;5.80;;;;;;;;;;5142640;27;20416;-73
2021/10/21 10:25:22;;;;;;;6.82;6.10;;;;;;;;;;5142415;27;20119;-74
2021/10/21 10:28:04;;;;;;;7.95;7.15;;;;;;;;;;5141005;27;20102;-73
2021/10/21 10:30:39;;;;;;;1359.15;838.00;;;;;;;;;;5142745;27;20062;-74
2021/10/21 10:33:05;;;;;;;1062.82;705.05;;;;;;;;;;5142665;27;20018;-74
2021/10/21 10:35:39;;;;;;;204.38;111.97;;;;;;;;;;5143031;27;20500;-73
2021/10/21 10:38:07;;;;;;;32.45;21.80;;;;;;;;;;5146467;27;20014;-73
2021/10/21 10:40:36;;;;;;;8.27;6.85;;;;;;;;;;5145030;27;20387;-73
2021/10/21 10:43:02;;;;;;;7.07;6.38;;;;;;;;;;5146216;27;20114;-75
2021/10/21 10:45:58;;;;;;;53.25;40.45;;;;;;;;;;5146565;27;20049;-74
2021/10/21 10:49:03;;;;;;;12.77;10.55;;;;;;;;;;5132680;27;20894;-73
2021/10/21 10:51:56;;;;;;;64.65;53.33;;;;;;;;;;5079425;28;20036;-73
2021/10/21 10:54:46;;;;;;;21.55;17.63;;;;;;;;;;5067825;28;20036;-73
2021/10/21 10:57:13;;;;;;;18.55;10.60;;;;;;;;;;5121643;27;20039;-72
2021/10/21 10:59:39;;;;;;;331.83;181.38;;;;;;;;;;5143258;27;20134;-73
2021/10/21 11:02:27;;;;;;;94.47;52.88;;;;;;;;;;5145836;27;20025;-70
2021/10/21 11:04:53;;;;;;;145.55;81.90;;;;;;;;;;5144522;27;20026;-69
2021/10/21 11:07:22;;;;;;;52.72;35.45;;;;;;;;;;5143917;27;20023;-70
2021/10/21 11:09:49;;;;;;;205.93;123.82;;;;;;;;;;5144372;27;20741;-70
2021/10/21 11:12:22;;;;;;;55.15;36.80;;;;;;;;;;5145748;27;20062;-71
2021/10/21 11:14:55;;;;;;;33.30;21.35;;;;;;;;;;5144879;27;20087;-72
2021/10/21 11:17:47;;;;;;;56.42;37.47;;;;;;;;;;5145457;27;20023;-71
2021/10/21 11:20:29;;;;;;;23.98;16.83;;;;;;;;;;5130455;27;20051;-71
2021/10/21 11:22:56;;;;;;;38.15;22.77;;;;;;;;;;5143218;27;20126;-71
2021/10/21 11:25:26;;;;;;;23.83;14.23;;;;;;;;;;5143672;27;20042;-71
2021/10/21 11:27:55;;;;;;;12.30;8.18;;;;;;;;;;5140772;27;20045;-71
2021/10/21 11:30:26;;;;;;;14.25;10.95;;;;;;;;;;5144015;27;20090;-71
2021/10/21 11:32:56;;;;;;;15.82;11.73;;;;;;;;;;5143512;27;20103;-72
2021/10/21 11:35:25;;;;;;;20.23;14.98;;;;;;;;;;5144976;27;20033;-71
2021/10/21 11:37:53;;;;;;;49.10;30.83;;;;;;;;;;5144500;27;20061;-71
2021/10/21 11:40:25;;;;;;;27.27;18.75;;;;;;;;;;5144376;27;20103;-71
2021/10/21 11:42:58;;;;;;;10.98;9.13;;;;;;;;;;5145054;27;20022;-71
2021/10/21 11:45:30;;;;;;;38.45;23.55;;;;;;;;;;5142828;27;20068;-71
2021/10/21 11:47:57;;;;;;;40.70;20.65;;;;;;;;;;5144536;27;20019;-71
2021/10/21 11:50:49;;;;;;;22.98;15.05;;;;;;;;;;5139378;27;20031;-70
2021/10/21 11:53:16;;;;;;;27.20;18.20;;;;;;;;;;5122635;27;20761;-70
2021/10/21 11:55:43;;;;;;;9.15;7.18;;;;;;;;;;5144638;27;20023;-70
2021/10/21 11:58:11;;;;;;;10.32;7.53;;;;;;;;;;5143373;27;20080;-70
2021/10/21 12:00:37;;;;;;;7.93;7.15;;;;;;;;;;5141898;27;20063;-71
2021/10/21 12:03:04;;;;;;;7.65;6.85;;;;;;;;;;5144637;27;20071;-71
2021/10/21 12:05:31;;;;;;;8.93;6.70;;;;;;;;;;5143997;27;21037;-71
2021/10/21 12:07:59;;;;;;;8.05;7.25;;;;;;;;;;5144735;27;20035;-70
2021/10/21 12:10:26;;;;;;;7.72;6.93;;;;;;;;;;5140361;27;20056;-71
2021/10/21 12:12:52;;;;;;;7.18;6.47;;;;;;;;;;5140666;27;20203;-71
2021/10/21 12:15:19;;;;;;;85.35;57.33;;;;;;;;;;5142072;27;20038;-71
2021/10/21 12:17:49;;;;;;;26.92;19.42;;;;;;;;;;5139933;27;20030;-71
2021/10/21 12:20:29;;;;;;;10.25;8.27;;;;;;;;;;5141380;27;20058;-71
2021/10/21 12:22:56;;;;;;;31.77;25.13;;;;;;;;;;5138530;27;20486;-71
2021/10/21 12:25:34;;;;;;;14.95;13.45;;;;;;;;;;5140894;27;20030;-71
2021/10/21 12:28:01;;;;;;;68.70;57.30;;;;;;;;;;5141978;27;20023;-72
2021/10/21 12:30:27;;;;;;;80.25;63.85;;;;;;;;;;5140154;27;20492;-72
2021/10/21 12:33:12;;;;;;;43.70;35.03;;;;;;;;;;5139313;27;20399;-71
2021/10/21 12:35:58;;;;;;;40.53;32.38;;;;;;;;;;5135750;27;20420;-71
2021/10/21 12:38:24;;;;;;;59.70;48.33;;;;;;;;;;5141719;27;20038;-71
2021/10/21 12:40:58;;;;;;;9.05;7.95;;;;;;;;;;5140839;27;20039;-71
2021/10/21 12:43:25;;;;;;;14.02;12.43;;;;;;;;;;5139247;27;20042;-71
2021/10/21 12:45:52;;;;;;;8.45;7.18;;;;;;;;;;5140569;27;20066;-71
2021/10/21 12:48:32;;;;;;;8.23;6.85;;;;;;;;;;5140959;27;20183;-71
2021/10/21 12:51:09;;;;;;;21.35;19.02;;;;;;;;;;5140094;27;20027;-72
2021/10/21 12:53:35;;;;;;;8.88;7.35;;;;;;;;;;5138263;27;20079;-72
2021/10/21 12:56:16;;;;;;;7.72;6.65;;;;;;;;;;5140800;27;20034;-72
2021/10/21 12:58:44;;;;;;;6.93;6.18;;;;;;;;;;5139068;27;20030;-73
2021/10/21 13:01:10;;;;;;;6.55;5.95;;;;;;;;;;5138281;27;20033;-72
2021/10/21 13:03:45;;;;;;;6.78;5.25;;;;;;;;;;5135452;27;20033;-72
2021/10/21 13:06:11;;;;;;;6.53;5.63;;;;;;;;;;5140251;27;20027;-71
2021/10/21 13:08:41;;;;;;;6.53;5.93;;;;;;;;;;5135849;27;20434;-72
2021/10/21 13:11:09;;;;;;;7.07;6.35;;;;;;;;;;5139229;27;20033;-72
2021/10/21 13:13:39;;;;;;;6.43;5.78;;;;;;;;;;5140660;27;20018;-71
2021/10/21 13:16:06;;;;;;;6.35;5.75;;;;;;;;;;5138702;27;20403;-72
2021/10/21 13:18:33;;;;;;;7.25;6.25;;;;;;;;;;5138872;27;20030;-71
2021/10/21 13:20:59;;;;;;;7.35;6.28;;;;;;;;;;5140282;27;20038;-72
2021/10/21 13:23:25;;;;;;;7.35;5.90;;;;;;;;;;5136213;27;20027;-72
2021/10/21 13:25:52;;;;;;;7.00;6.25;;;;;;;;;;5130574;27;20026;-72
2021/10/21 13:28:18;;;;;;;5.82;5.30;;;;;;;;;;5139348;27;20014;-72
2021/10/21 13:30:45;;;;;;;8.00;5.82;;;;;;;;;;5140283;27;20026;-72
2021/10/21 13:33:11;;;;;;;7.53;5.65;;;;;;;;;;5138267;27;20026;-72
2021/10/21 13:35:39;;;;;;;228.18;164.30;;;;;;;;;;5131546;27;20030;-72
2021/10/21 13:38:05;;;;;;;138.23;100.82;;;;;;;;;;5136138;27;20033;-72
2021/10/21 13:40:31;;;;;;;57.92;44.80;;;;;;;;;;5135917;27;20042;-71
2021/10/21 13:42:59;;;;;;;15.85;13.20;;;;;;;;;;5140827;27;20022;-71
2021/10/21 13:45:25;;;;;;;36.75;30.42;;;;;;;;;;5139558;27;20391;-71
2021/10/21 13:47:53;;;;;;;10.50;8.80;;;;;;;;;;5139954;27;20035;-72
2021/10/21 13:50:19;;;;;;;8.63;5.57;;;;;;;;;;5140764;27;20419;-72
2021/10/21 13:52:45;;;;;;;6.55;5.50;;;;;;;;;;5138521;27;20030;-73
2021/10/21 13:55:12;;;;;;;6.40;5.47;;;;;;;;;;5140778;27;20083;-71
2021/10/21 13:57:39;;;;;;;6.10;5.50;;;;;;;;;;5140071;27;20530;-72
2021/10/21 14:00:09;;;;;;;6.25;5.55;;;;;;;;;;5139680;27;20103;-71
2021/10/21 14:02:35;;;;;;;7.20;5.65;;;;;;;;;;5139788;27;20027;-71
2021/10/21 14:05:01;;;;;;;7.45;5.43;;;;;;;;;;5140199;27;20022;-71
2021/10/21 14:07:28;;;;;;;5.85;5.25;;;;;;;;;;5138455;27;20481;-71
2021/10/21 14:09:54;;;;;;;7.40;5.25;;;;;;;;;;5140219;27;20088;-71
2021/10/21 14:12:21;;;;;;;7.65;5.30;;;;;;;;;;5142754;27;20038;-71
2021/10/21 14:14:47;;;;;;;5.93;5.07;;;;;;;;;;5144413;27;20015;-71
2021/10/21 14:17:14;;;;;;;5.55;4.65;;;;;;;;;;5144211;27;20414;-72
2021/10/21 14:19:40;;;;;;;6.38;5.10;;;;;;;;;;5142776;27;20041;-71
2021/10/21 14:22:08;;;;;;;6.30;5.32;;;;;;;;;;5142429;27;20454;-71
2021/10/21 14:24:35;;;;;;;7.57;5.38;;;;;;;;;;5143723;27;20030;-72
2021/10/21 14:27:02;;;;;;;7.35;5.68;;;;;;;;;;5143844;27;20036;-71
2021/10/21 14:29:28;;;;;;;6.28;5.65;;;;;;;;;;5144019;27;20081;-72
2021/10/21 14:31:54;;;;;;;5.75;5.25;;;;;;;;;;5140889;27;20026;-71
2021/10/21 14:34:20;;;;;;;6.18;5.47;;;;;;;;;;5141445;27;20534;-71
2021/10/21 14:36:46;;;;;;;7.72;5.30;;;;;;;;;;5144326;27;20478;-72
2021/10/21 14:39:13;;;;;;;5.85;5.10;;;;;;;;;;5143895;27;20043;-72
2021/10/21 14:41:39;;;;;;;5.65;5.15;;;;;;;;;;5141813;27;20129;-72
2021/10/21 14:44:05;;;;;;;6.00;5.35;;;;;;;;;;5143822;27;20436;-71
2021/10/21 14:46:34;;;;;;;6.00;5.38;;;;;;;;;;5143353;27;20014;-71